Time;durP1;ratioP1;P1;durP2;ratioP2;P2;SDS_P1;SDS_P2;PMS_P1;PMS_P2;Temp;Humidity;BMP_temperature;BMP_pressure;BME280_temperature;BME280_humidity;BME280_pressure;Samples;Min_cycle;Max_cycle;Signal;HPM_P1;HPM_P2
2022/07/16 00:02:18;;;;;;;2.80;2.60;;;;;;;21.96;69.72;100935.31;4957138;28;102016;-65
2022/07/16 00:04:46;;;;;;;2.83;2.63;;;;;;;21.97;69.86;100953.59;4956476;28;102142;-66
2022/07/16 00:07:14;;;;;;;2.75;2.47;;;;;;;21.97;69.82;100959.13;4957381;28;102612;-65
2022/07/16 00:09:42;;;;;;;2.83;2.63;;;;;;;21.97;69.83;100954.38;4956608;28;104373;-65
2022/07/16 00:12:09;;;;;;;2.13;1.92;;;;;;;21.96;69.73;100952.78;4957324;28;101920;-66
2022/07/16 00:14:35;;;;;;;3.20;2.90;;;;;;;21.96;69.52;100952.78;4936536;28;101944;-66
2022/07/16 00:17:03;;;;;;;3.53;2.55;;;;;;;21.97;69.82;100959.13;4940138;28;102772;-65
2022/07/16 00:19:30;;;;;;;2.90;2.70;;;;;;;21.96;69.92;100951.94;4954174;28;103975;-65
2022/07/16 00:21:58;;;;;;;4.22;2.92;;;;;;;21.96;69.78;100951.94;4955077;28;102270;-65
2022/07/16 00:24:26;;;;;;;2.67;2.30;;;;;;;21.95;69.60;100951.13;4944702;28;102104;-66
2022/07/16 00:26:53;;;;;;;2.70;2.50;;;;;;;21.96;69.79;100951.94;4957632;28;102237;-65
2022/07/16 00:29:20;;;;;;;2.92;2.63;;;;;;;21.94;69.86;100949.53;4952153;28;103953;-65
2022/07/16 00:31:47;;;;;;;2.67;2.45;;;;;;;21.94;69.93;100944.00;4941075;28;102129;-65
2022/07/16 00:34:14;;;;;;;2.72;2.53;;;;;;;21.94;69.71;100946.75;4939632;28;102309;-65
2022/07/16 00:36:41;;;;;;;2.70;2.42;;;;;;;21.96;69.80;100954.72;4946376;28;102170;-65
2022/07/16 00:39:11;;;;;;;3.33;2.85;;;;;;;21.96;69.80;100946.41;4952518;28;104125;-65
2022/07/16 00:41:39;;;;;;;3.35;2.60;;;;;;;21.96;69.68;100946.41;4959768;28;102213;-66
2022/07/16 00:44:08;;;;;;;;;;;;;;;21.94;69.66;100937.63;4956864;28;102283;-65
2022/07/16 00:46:35;;;;;;;;;;;;;;;21.95;69.74;100934.50;4949734;28;102855;-65
2022/07/16 00:49:03;;;;;;;2.63;2.38;;;;;;;21.94;69.83;100932.09;4951276;28;107838;-65
2022/07/16 00:51:31;;;;;;;3.15;2.50;;;;;;;21.95;69.70;100933.72;4959272;28;102571;-66
2022/07/16 00:53:58;;;;;;;3.00;2.80;;;;;;;21.95;69.79;100928.97;4958715;28;102611;-66
2022/07/16 00:56:26;;;;;;;2.67;2.47;;;;;;;21.94;69.86;100924.59;4960465;28;102134;-66
2022/07/16 00:58:54;;;;;;;3.00;2.70;;;;;;;21.93;69.73;100920.22;4957896;28;104011;-66
2022/07/16 01:01:22;;;;;;;3.00;2.70;;;;;;;21.93;69.81;100917.44;4959899;28;101931;-66
2022/07/16 01:03:49;;;;;;;4.10;2.80;;;;;;;21.93;69.53;100916.63;4959031;28;102370;-65
2022/07/16 01:06:15;;;;;;;3.53;2.50;;;;;;;21.92;69.33;100901.13;4960000;28;102178;-65
2022/07/16 01:08:45;;;;;;;3.00;2.80;;;;;;;21.92;69.15;100892.81;4958343;28;104151;-65
2022/07/16 01:11:13;;;;;;;3.15;2.88;;;;;;;21.93;69.60;100886.16;4959618;28;102016;-65
2022/07/16 01:13:43;;;;;;;2.63;2.42;;;;;;;21.93;69.62;100886.97;4955200;28;102246;-65
2022/07/16 01:16:11;;;;;;;2.88;2.58;;;;;;;21.94;69.50;100904.38;4960156;28;102285;-66
2022/07/16 01:18:39;;;;;;;3.42;2.58;;;;;;;21.94;69.37;100909.94;4957478;28;104096;-65
2022/07/16 01:21:07;;;;;;;3.50;2.50;;;;;;;21.93;69.52;100908.31;4940524;28;102500;-66
2022/07/16 01:23:35;;;;;;;2.72;2.50;;;;;;;21.93;69.68;100920.22;4959062;28;102323;-65
2022/07/16 01:26:02;;;;;;;4.67;2.60;;;;;;;21.92;69.27;100929.66;4960053;28;102443;-66
2022/07/16 01:28:29;;;;;;;3.03;2.72;;;;;;;21.92;69.48;100912.22;4957715;28;104582;-66
2022/07/16 01:30:55;;;;;;;5.35;2.47;;;;;;;21.91;69.06;100916.16;4959048;28;102395;-66
2022/07/16 01:33:24;;;;;;;2.88;2.67;;;;;;;21.90;69.36;100909.81;4946330;28;101974;-65
2022/07/16 01:35:52;;;;;;;3.30;3.00;;;;;;;21.93;69.43;100913.88;4954900;28;102355;-66
2022/07/16 01:38:18;;;;;;;3.10;2.77;;;;;;;21.91;69.30;100916.16;4953109;28;103879;-67
2022/07/16 01:40:46;;;;;;;3.10;2.80;;;;;;;21.90;69.41;100926.44;4957991;28;102422;-65
2022/07/16 01:43:14;;;;;;;6.00;2.50;;;;;;;21.90;69.60;100920.09;4958273;28;102421;-66
2022/07/16 01:45:41;;;;;;;6.68;3.13;;;;;;;21.90;69.38;100920.88;4960038;28;102621;-66
2022/07/16 01:48:08;;;;;;;2.58;2.38;;;;;;;21.90;69.48;100917.31;4958576;28;103922;-65
2022/07/16 01:50:36;;;;;;;3.40;3.17;;;;;;;21.90;69.62;100903.47;4957284;28;103683;-66
2022/07/16 01:53:03;;;;;;;5.05;2.80;;;;;;;21.90;69.37;100903.47;4951626;28;101972;-66
2022/07/16 01:55:29;;;;;;;3.40;3.10;;;;;;;21.90;69.29;100911.78;4954826;28;102116;-65
2022/07/16 01:57:58;;;;;;;3.22;2.78;;;;;;;21.90;69.25;100920.09;4957950;28;104133;-65
2022/07/16 02:00:25;;;;;;;7.32;3.60;;;;;;;21.89;69.33;100913.75;4958354;28;102044;-65
2022/07/16 02:02:51;;;;;;;2.85;2.65;;;;;;;21.89;69.37;100910.13;4958213;28;102369;-65
2022/07/16 02:05:18;;;;;;;4.22;3.00;;;;;;;21.90;69.38;100914.53;4960031;28;102176;-65
2022/07/16 02:07:44;;;;;;;3.35;3.05;;;;;;;21.89;69.28;100927.59;4957489;28;104036;-65
2022/07/16 02:10:11;;;;;;;3.47;2.78;;;;;;;21.90;69.27;100937.50;4957252;28;102402;-65
2022/07/16 02:12:39;;;;;;;4.07;3.20;;;;;;;21.90;69.19;100936.72;4939129;28;101960;-66
2022/07/16 02:15:08;;;;;;;3.15;2.85;;;;;;;21.90;69.33;100942.25;4954797;28;102397;-65
2022/07/16 02:17:34;;;;;;;3.35;3.05;;;;;;;21.90;69.27;100945.03;4952932;28;104138;-64
2022/07/16 02:20:03;;;;;;;3.35;3.05;;;;;;;21.89;69.39;100941.44;4951258;28;102209;-65
2022/07/16 02:22:30;;;;;;;3.50;3.20;;;;;;;21.90;69.42;100942.25;4957341;28;102215;-66
2022/07/16 02:24:56;;;;;;;4.85;3.15;;;;;;;21.90;69.56;100947.78;4942871;28;102339;-65
2022/07/16 02:27:23;;;;;;;3.53;3.00;;;;;;;21.90;69.41;100947.78;4938182;28;103941;-66
2022/07/16 02:29:49;;;;;;;3.58;3.28;;;;;;;21.90;69.54;100951.38;4942651;28;102276;-66
2022/07/16 02:32:17;;;;;;;3.97;3.20;;;;;;;21.90;69.42;100945.03;4958351;28;102335;-66
2022/07/16 02:34:44;;;;;;;3.77;3.47;;;;;;;21.89;69.42;100943.38;4959324;28;102742;-66
2022/07/16 02:37:10;;;;;;;3.60;3.30;;;;;;;21.89;69.37;100951.69;4957069;28;103977;-65
2022/07/16 02:39:38;;;;;;;5.53;2.90;;;;;;;21.89;69.36;100946.16;4956852;28;102440;-67
2022/07/16 02:42:05;;;;;;;3.90;3.47;;;;;;;21.90;69.41;100953.34;4957931;28;102065;-66
2022/07/16 02:44:31;;;;;;;3.30;3.00;;;;;;;21.90;69.51;100956.09;4959036;28;102117;-65
2022/07/16 02:46:58;;;;;;;3.67;3.25;;;;;;;21.89;69.64;100963.63;4957267;28;103881;-65
2022/07/16 02:49:25;;;;;;;4.65;3.13;;;;;;;21.90;69.70;100967.19;4957789;28;102412;-65
2022/07/16 02:51:52;;;;;;;3.27;2.97;;;;;;;21.90;69.59;100969.97;4955871;28;103065;-65
2022/07/16 02:54:19;;;;;;;3.42;3.13;;;;;;;21.89;69.46;100979.41;4958733;28;102647;-65
2022/07/16 02:56:45;;;;;;;3.47;3.10;;;;;;;21.89;69.68;100973.84;4956170;28;103928;-65
2022/07/16 02:59:12;;;;;;;3.38;3.08;;;;;;;21.90;69.67;100983.81;4957525;28;101878;-67
2022/07/16 03:01:38;;;;;;;3.58;3.28;;;;;;;21.88;69.64;100977.78;4957364;28;102202;-65
2022/07/16 03:04:04;;;;;;;3.13;2.90;;;;;;;21.88;69.59;100983.34;4958177;28;102120;-66
2022/07/16 03:06:32;;;;;;;4.75;3.58;;;;;;;21.89;69.59;100976.63;4956877;28;104107;-65
2022/07/16 03:08:59;;;;;;;2.97;2.77;;;;;;;21.88;69.71;100978.59;4955625;28;102547;-65
2022/07/16 03:11:25;;;;;;;3.30;3.00;;;;;;;21.87;69.72;100978.94;4946325;28;102560;-66
2022/07/16 03:13:52;;;;;;;3.08;2.78;;;;;;;21.87;69.69;100982.53;4942602;28;102572;-64
2022/07/16 03:16:19;;;;;;;3.75;3.03;;;;;;;21.88;69.58;100983.34;4957117;28;103888;-65
2022/07/16 03:18:45;;;;;;;3.38;2.85;;;;;;;21.88;69.52;100984.13;4955826;28;102525;-65
2022/07/16 03:21:12;;;;;;;2.95;2.75;;;;;;;21.90;69.62;100989.34;4957078;28;102084;-66
2022/07/16 03:23:40;;;;;;;3.35;3.05;;;;;;;21.92;69.61;101001.69;4958409;28;102193;-65
2022/07/16 03:26:06;;;;;;;3.55;3.22;;;;;;;21.92;69.58;101001.69;4956736;28;108040;-63
2022/07/16 03:28:34;;;;;;;3.63;3.30;;;;;;;21.93;69.50;101008.06;4955992;28;101868;-65
2022/07/16 03:31:00;;;;;;;4.03;3.20;;;;;;;21.93;69.48;101008.06;4937571;28;102228;-63
2022/07/16 03:33:27;;;;;;;3.17;2.97;;;;;;;21.93;69.34;101008.06;4940154;28;102297;-66
2022/07/16 03:35:55;;;;;;;5.10;3.37;;;;;;;21.93;69.58;101003.34;4953395;28;104070;-66
2022/07/16 03:41:08;;;;;;;3.45;3.00;;;;;;;21.93;69.65;101002.53;4938518;28;101923;-65
2022/07/16 03:43:35;;;;;;;3.60;3.30;;;;;;;21.93;69.61;101005.31;4938798;28;102170;-66
2022/07/16 03:46:02;;;;;;;3.40;3.10;;;;;;;21.91;69.75;101005.63;4936760;28;103927;-65
2022/07/16 03:48:28;;;;;;;3.58;3.08;;;;;;;21.91;69.69;101004.81;4949256;28;102161;-65
2022/07/16 03:50:55;;;;;;;3.10;2.80;;;;;;;21.92;69.69;101020.28;4945260;28;102564;-67
2022/07/16 03:53:22;;;;;;;3.72;3.42;;;;;;;21.91;69.70;101015.91;4948244;28;102275;-65
2022/07/16 03:55:49;;;;;;;3.35;3.10;;;;;;;21.91;69.89;101021.44;4936629;28;104418;-65
2022/07/16 03:58:17;;;;;;;3.20;2.90;;;;;;;21.91;69.85;101024.22;4937648;28;102000;-66
2022/07/16 04:00:43;;;;;;;4.80;3.20;;;;;;;21.89;69.82;101019.03;4954175;28;102245;-67
2022/07/16 04:03:10;;;;;;;3.33;3.03;;;;;;;21.91;69.85;101026.97;4958067;28;102146;-66
2022/07/16 04:05:38;;;;;;;3.05;2.75;;;;;;;21.91;69.75;101029.75;4955620;28;104081;-67
2022/07/16 04:08:04;;;;;;;3.17;2.88;;;;;;;21.92;69.73;101039.69;4952089;28;102206;-65
2022/07/16 04:10:31;;;;;;;3.25;2.95;;;;;;;21.91;70.03;101043.59;4955883;28;102811;-65
2022/07/16 04:12:58;;;;;;;3.67;3.38;;;;;;;21.91;69.68;101032.53;4958704;28;102660;-66
2022/07/16 04:15:26;;;;;;;3.90;2.90;;;;;;;21.90;69.91;101037.25;4953254;28;103917;-66
2022/07/16 04:17:53;;;;;;;3.53;3.22;;;;;;;21.93;69.79;101038.56;4959642;28;101832;-66
2022/07/16 04:20:22;;;;;;;3.38;3.08;;;;;;;21.93;69.66;101042.13;4953502;28;102438;-65
2022/07/16 04:22:48;;;;;;;4.38;3.10;;;;;;;21.93;69.68;101049.63;4941719;28;102125;-66
2022/07/16 04:25:15;;;;;;;2.92;2.63;;;;;;;21.93;69.63;101052.41;4948223;28;104105;-65
2022/07/16 04:27:42;;;;;;;3.95;2.95;;;;;;;21.93;69.71;101052.41;4941106;28;102527;-65
2022/07/16 04:30:11;;;;;;;;;;;;;;;21.95;69.74;101047.31;4956491;28;102139;-66
2022/07/16 04:32:40;;;;;;;3.20;3.00;;;;;;;21.96;69.58;101054.47;4961117;28;102180;-65
2022/07/16 04:35:09;;;;;;;3.50;3.17;;;;;;;21.96;69.54;101057.25;4959043;28;104132;-65
2022/07/16 04:37:41;;;;;;;4.00;3.13;;;;;;;21.97;69.63;101058.88;4959575;28;102122;-65
2022/07/16 04:40:10;;;;;;;3.17;2.97;;;;;;;21.97;69.60;101056.91;4959260;28;102214;-65
2022/07/16 04:42:37;;;;;;;3.13;2.92;;;;;;;21.97;69.49;101058.88;4961219;28;102264;-66
2022/07/16 04:45:04;;;;;;;3.97;3.17;;;;;;;21.97;69.50;101064.44;4959070;28;103923;-65
2022/07/16 04:47:31;;;;;;;4.13;2.97;;;;;;;21.98;69.69;101057.72;4959738;28;102332;-66
2022/07/16 04:49:59;;;;;;;3.53;3.03;;;;;;;21.99;69.40;101062.91;4957401;28;102080;-66
2022/07/16 04:52:27;;;;;;;4.05;3.65;;;;;;;22.01;69.34;101070.91;4960067;28;102428;-66
2022/07/16 04:54:53;;;;;;;3.17;2.97;;;;;;;22.01;69.70;101076.44;4958787;28;104114;-65
2022/07/16 04:57:20;;;;;;;3.38;3.13;;;;;;;22.00;69.47;101080.38;4959917;28;102009;-65
2022/07/16 04:59:46;;;;;;;3.20;3.00;;;;;;;21.99;69.63;101084.28;4958494;28;101840;-67
2022/07/16 05:04:59;;;;;;;4.47;2.97;;;;;;;21.97;69.68;101086.59;4958101;28;103853;-66
2022/07/16 05:07:25;;;;;;;3.23;3.03;;;;;;;21.97;69.70;101070.78;4959983;28;102262;-65
2022/07/16 05:09:53;;;;;;;3.38;3.08;;;;;;;21.97;69.81;101079.09;4958459;28;102482;-66
2022/07/16 05:12:20;;;;;;;3.20;3.00;;;;;;;21.99;69.32;101084.28;4957552;28;102632;-66
2022/07/16 05:14:46;;;;;;;4.03;3.22;;;;;;;21.99;69.71;101085.09;4958856;28;104146;-65
2022/07/16 05:17:14;;;;;;;3.33;3.03;;;;;;;22.02;69.25;101083.59;4950650;28;102385;-67
2022/07/16 05:19:41;;;;;;;3.30;3.10;;;;;;;22.02;69.43;101080.84;4954805;28;102039;-62
2022/07/16 05:22:09;;;;;;;3.90;3.60;;;;;;;22.01;69.50;101071.72;4951720;28;102147;-65
2022/07/16 05:24:36;;;;;;;3.47;3.17;;;;;;;22.01;69.65;101070.91;4952543;28;103973;-65
2022/07/16 05:27:02;;;;;;;3.45;3.20;;;;;;;22.02;69.62;101072.53;4959777;28;101943;-65
2022/07/16 05:29:29;;;;;;;3.10;2.90;;;;;;;22.01;69.72;101071.72;4951502;28;102466;-65
2022/07/16 05:31:56;;;;;;;5.43;3.60;;;;;;;22.02;69.32;101067.78;4953225;28;102365;-66
2022/07/16 05:34:22;;;;;;;3.65;3.38;;;;;;;22.04;68.99;101081.31;4947699;28;104531;-65
2022/07/16 05:36:49;;;;;;;3.20;3.00;;;;;;;22.03;69.52;101071.34;4939632;28;102382;-65
2022/07/16 05:39:17;;;;;;;3.70;3.42;;;;;;;22.02;69.55;101072.53;4939213;28;102252;-66
2022/07/16 05:41:44;;;;;;;3.40;3.10;;;;;;;22.01;69.43;101080.03;4956974;28;102429;-65
2022/07/16 05:44:10;;;;;;;3.75;3.45;;;;;;;22.01;69.50;101091.13;4958359;28;103998;-66
2022/07/16 05:46:37;;;;;;;3.40;3.10;;;;;;;22.01;69.55;101085.56;4958745;28;101953;-65
2022/07/16 05:49:04;;;;;;;3.95;3.55;;;;;;;22.00;69.70;101085.91;4944694;28;101990;-67
2022/07/16 05:51:31;;;;;;;3.60;3.30;;;;;;;22.01;69.16;101093.06;4948761;28;102445;-65
2022/07/16 05:53:58;;;;;;;4.88;3.30;;;;;;;22.01;69.90;101087.53;4947938;28;103911;-65
2022/07/16 05:56:27;;;;;;;3.88;3.42;;;;;;;22.00;69.70;101085.91;4939647;28;102455;-66
2022/07/16 05:58:56;;;;;;;5.32;3.45;;;;;;;22.00;69.57;101081.19;4953228;28;102055;-66
2022/07/16 06:01:22;;;;;;;17.52;3.70;;;;;;;22.01;69.66;101087.53;4955736;28;103513;-65
2022/07/16 06:03:49;;;;;;;3.60;3.30;;;;;;;22.01;69.25;101088.34;4951015;28;103855;-65
2022/07/16 06:06:15;;;;;;;3.85;3.20;;;;;;;22.03;69.53;101088.00;4957043;28;102432;-66
2022/07/16 06:08:42;;;;;;;3.13;2.92;;;;;;;22.02;69.52;101089.16;4953327;28;102533;-65
2022/07/16 06:11:08;;;;;;;3.40;3.10;;;;;;;22.02;69.55;101084.41;4959521;28;102413;-67
2022/07/16 06:13:36;;;;;;;4.10;3.70;;;;;;;22.02;69.73;101089.94;4952789;28;103976;-65
2022/07/16 06:16:06;;;;;;;4.00;3.70;;;;;;;22.02;69.72;101083.59;4948661;28;102145;-66
2022/07/16 06:18:33;;;;;;;3.53;3.28;;;;;;;22.04;69.09;101082.13;4938753;28;102225;-65
2022/07/16 06:21:00;;;;;;;5.88;3.65;;;;;;;22.04;69.21;101081.31;4946583;28;102388;-65
2022/07/16 06:23:26;;;;;;;4.97;3.75;;;;;;;22.05;69.26;101080.16;4948912;28;104048;-66
2022/07/16 06:25:53;;;;;;;4.00;3.60;;;;;;;22.07;68.65;101081.44;4954525;28;102332;-65
2022/07/16 06:28:19;;;;;;;3.72;3.40;;;;;;;22.07;69.29;101086.19;4952792;28;102371;-65
2022/07/16 06:30:47;;;;;;;3.72;3.45;;;;;;;22.05;69.76;101094.00;4957894;28;102416;-65
2022/07/16 06:33:14;;;;;;;3.83;3.50;;;;;;;22.05;69.58;101094.00;4954936;28;103935;-65
2022/07/16 06:35:40;;;;;;;3.30;3.10;;;;;;;22.04;69.63;101086.84;4949927;28;102048;-64
2022/07/16 06:38:07;;;;;;;3.97;3.67;;;;;;;22.06;69.54;101090.09;4940650;28;102132;-66
2022/07/16 06:40:34;;;;;;;4.07;3.67;;;;;;;22.04;69.59;101087.66;4957220;28;102157;-65
2022/07/16 06:43:01;;;;;;;4.00;3.58;;;;;;;22.05;69.59;101088.47;4957006;28;103995;-65
2022/07/16 06:45:27;;;;;;;4.10;3.70;;;;;;;22.07;69.67;101097.28;4958213;28;102160;-66
2022/07/16 06:47:56;;;;;;;4.07;3.70;;;;;;;22.07;69.63;101103.63;4957530;28;102006;-65
2022/07/16 06:50:24;;;;;;;4.22;3.83;;;;;;;22.05;69.59;101100.38;4958882;28;102458;-66
2022/07/16 06:52:51;;;;;;;3.90;3.60;;;;;;;22.06;69.54;101107.53;4957167;28;103880;-66
2022/07/16 06:55:18;;;;;;;3.65;3.45;;;;;;;22.07;69.68;101094.50;4951270;28;101908;-66
2022/07/16 06:57:44;;;;;;;4.05;3.75;;;;;;;22.12;69.41;101099.81;4938064;28;102131;-66
2022/07/16 07:00:12;;;;;;;3.75;3.50;;;;;;;22.15;69.33;101099.16;4957026;28;102217;-65
2022/07/16 07:02:38;;;;;;;3.63;3.42;;;;;;;22.17;69.50;101096.84;4953622;28;103895;-65
2022/07/16 07:05:08;;;;;;;4.35;3.83;;;;;;;22.18;69.47;101098.50;4937999;28;102952;-65
2022/07/16 07:07:34;;;;;;;4.10;3.80;;;;;;;22.22;69.32;101099.44;4956638;28;102581;-65
2022/07/16 07:10:01;;;;;;;4.18;3.88;;;;;;;22.27;68.85;101093.66;4958799;28;102169;-66
2022/07/16 07:12:33;;;;;;;4.00;3.70;;;;;;;22.30;68.94;101090.22;4936913;28;104368;-66
2022/07/16 07:15:00;;;;;;;3.60;3.30;;;;;;;22.33;69.19;101090.69;4939770;28;101925;-66
2022/07/16 07:17:27;;;;;;;4.00;3.67;;;;;;;22.35;68.70;101091.94;4953584;28;101966;-65
2022/07/16 07:19:53;;;;;;;4.00;3.70;;;;;;;22.37;69.09;101088.84;4945522;28;102223;-65
2022/07/16 07:22:22;;;;;;;4.20;3.90;;;;;;;22.38;68.59;101085.72;4938884;28;104183;-65
2022/07/16 07:24:50;;;;;;;3.92;3.63;;;;;;;22.39;69.04;101086.53;4946938;28;102273;-66
2022/07/16 07:27:18;;;;;;;3.88;3.58;;;;;;;22.39;69.01;101092.06;4938669;28;102350;-65
2022/07/16 07:29:45;;;;;;;;;;;;;;;22.40;68.87;101088.16;4948489;28;103568;-65
2022/07/16 07:32:11;;;;;;;4.18;3.85;;;;;;;22.40;69.08;101088.16;4956085;28;103992;-66
2022/07/16 07:34:38;;;;;;;4.25;3.92;;;;;;;22.41;69.12;101081.47;4958630;28;101942;-65
2022/07/16 07:37:04;;;;;;;4.43;4.13;;;;;;;22.42;69.10;101080.31;4957467;28;101953;-66
2022/07/16 07:39:32;;;;;;;4.15;3.70;;;;;;;22.44;69.22;101072.47;4958346;28;102119;-66
2022/07/16 07:41:58;;;;;;;4.70;4.30;;;;;;;22.43;69.05;101074.44;4955166;28;104161;-65
2022/07/16 07:44:25;;;;;;;4.68;4.20;;;;;;;22.45;68.66;101074.06;4953525;28;103016;-65
2022/07/16 07:46:52;;;;;;;3.92;3.63;;;;;;;22.47;68.69;101069.00;4955048;28;102447;-65
2022/07/16 07:49:19;;;;;;;3.85;3.55;;;;;;;22.50;68.69;101071.06;4956417;28;102221;-66
2022/07/16 07:51:46;;;;;;;4.40;4.00;;;;;;;22.49;68.86;101075.00;4941226;28;103883;-67
2022/07/16 07:54:12;;;;;;;4.57;4.18;;;;;;;22.48;68.50;101078.94;4944577;28;102254;-65
2022/07/16 07:56:40;;;;;;;5.53;4.45;;;;;;;22.51;67.96;101067.16;4940786;28;102142;-66
2022/07/16 07:59:07;;;;;;;3.93;3.63;;;;;;;22.51;68.76;101067.16;4939653;28;102165;-65
2022/07/16 08:01:33;;;;;;;4.03;3.72;;;;;;;22.52;68.75;101069.59;4954821;28;104072;-65
2022/07/16 08:04:01;;;;;;;4.05;3.75;;;;;;;22.51;68.87;101067.16;4943216;28;102882;-63
2022/07/16 08:06:27;;;;;;;4.60;4.20;;;;;;;22.51;69.05;101064.38;4939224;28;101886;-64
2022/07/16 08:08:54;;;;;;;5.10;4.60;;;;;;;22.49;69.09;101066.69;4951328;28;102108;-65
2022/07/16 08:11:21;;;;;;;4.18;3.88;;;;;;;22.52;68.01;101080.69;4951328;28;103924;-63
2022/07/16 08:13:49;;;;;;;4.15;3.85;;;;;;;22.54;68.67;101069.25;4954260;28;102058;-65
2022/07/16 08:16:15;;;;;;;3.92;3.63;;;;;;;22.52;68.84;101072.34;4955146;28;102215;-64
2022/07/16 08:18:42;;;;;;;4.20;3.90;;;;;;;22.55;68.86;101062.53;4958477;28;102347;-66
2022/07/16 08:21:08;;;;;;;4.57;4.28;;;;;;;22.53;69.02;101070.38;4945975;28;103787;-65
2022/07/16 08:26:22;;;;;;;5.18;4.13;;;;;;;22.52;68.86;101069.59;4957426;28;102445;-66
2022/07/16 08:28:50;;;;;;;4.57;4.18;;;;;;;22.53;68.95;101067.63;4959073;28;102227;-64
2022/07/16 08:31:18;;;;;;;4.70;4.30;;;;;;;22.53;69.00;101070.38;4949594;28;104051;-65
2022/07/16 08:33:44;;;;;;;4.40;4.00;;;;;;;22.55;68.51;101065.31;4940223;28;102301;-64
2022/07/16 08:36:11;;;;;;;4.40;4.05;;;;;;;22.59;68.54;101060.69;4958295;28;102252;-65
2022/07/16 08:38:37;;;;;;;4.30;3.92;;;;;;;22.56;68.74;101064.16;4959170;28;102287;-65
2022/07/16 08:41:05;;;;;;;4.70;4.40;;;;;;;22.59;68.79;101063.47;4948122;28;103920;-65
2022/07/16 08:43:32;;;;;;;4.40;4.10;;;;;;;22.61;68.26;101061.19;4938756;28;102091;-65
2022/07/16 08:46:01;;;;;;;4.85;4.40;;;;;;;22.61;67.84;101061.19;4938116;28;102117;-65
2022/07/16 08:48:27;;;;;;;4.78;4.38;;;;;;;22.60;68.17;101056.75;4939383;28;102230;-66
2022/07/16 08:50:55;;;;;;;4.28;3.97;;;;;;;22.59;68.68;101052.38;4937572;28;104121;-65
2022/07/16 08:53:23;;;;;;;4.20;3.80;;;;;;;22.56;68.90;101047.50;4942423;28;102072;-65
2022/07/16 08:55:52;;;;;;;4.27;3.87;;;;;;;22.56;68.96;101055.84;4960719;28;101871;-65
2022/07/16 08:58:19;;;;;;;4.22;3.90;;;;;;;22.56;69.07;101053.06;4951283;28;102325;-65
2022/07/16 09:00:46;;;;;;;4.65;4.25;;;;;;;22.57;68.44;101048.31;4959516;28;103946;-66
2022/07/16 09:03:15;;;;;;;4.20;3.90;;;;;;;22.60;68.69;101054.00;4960840;28;102185;-65
2022/07/16 09:05:43;;;;;;;4.97;4.60;;;;;;;22.60;68.91;101048.44;4960741;28;102088;-65
2022/07/16 09:08:09;;;;;;;4.37;4.07;;;;;;;22.59;68.42;101052.38;4959835;28;102102;-65
2022/07/16 09:10:38;;;;;;;5.03;3.90;;;;;;;22.59;68.82;101055.16;4957942;28;104077;-65
2022/07/16 09:13:05;;;;;;;4.30;4.00;;;;;;;22.59;69.01;101046.81;4960008;28;101831;-65
2022/07/16 09:15:33;;;;;;;3.83;3.60;;;;;;;22.61;68.57;101052.84;4959953;28;102069;-65
2022/07/16 09:18:15;;;;;;;4.72;3.92;;;;;;;22.67;67.68;101048.69;4961747;28;102128;-65
2022/07/16 09:20:44;;;;;;;4.30;3.90;;;;;;;22.64;68.54;101052.13;4959335;28;104782;-67
2022/07/16 09:23:27;;;;;;;6.38;4.43;;;;;;;22.62;68.82;101051.69;4943018;28;102130;-65
2022/07/16 09:25:56;;;;;;;4.30;4.00;;;;;;;22.62;68.40;101051.69;4959287;28;102663;-65
2022/07/16 09:28:25;;;;;;;5.10;4.10;;;;;;;22.63;68.72;101046.94;4953661;28;102113;-65
2022/07/16 09:30:51;;;;;;;4.60;4.30;;;;;;;22.62;68.87;101050.88;4940034;28;103854;-65
2022/07/16 09:33:22;;;;;;;5.10;4.22;;;;;;;22.61;68.88;101047.31;4946152;28;102090;-65
2022/07/16 09:36:05;;;;;;;4.53;4.18;;;;;;;22.61;68.82;101044.53;4943628;28;102045;-65
2022/07/16 09:38:44;;;;;;;4.80;4.40;;;;;;;22.61;68.72;101038.16;4941507;28;102161;-64
2022/07/16 09:41:13;;;;;;;4.47;4.18;;;;;;;22.62;68.42;101035.03;4940293;28;104263;-65
2022/07/16 09:43:40;;;;;;;;;;;;;;;22.62;68.81;101035.03;4941772;28;102065;-66
2022/07/16 09:46:07;;;;;;;6.40;5.43;;;;;;;22.62;68.97;101037.81;4955346;28;102613;-64
2022/07/16 09:48:35;;;;;;;4.50;4.10;;;;;;;22.64;68.46;101027.16;4948918;28;102286;-65
2022/07/16 09:51:14;;;;;;;4.50;4.10;;;;;;;22.65;68.50;101030.78;4942245;28;104012;-65
2022/07/16 09:53:43;;;;;;;4.28;3.97;;;;;;;22.63;68.77;101036.66;4951314;28;101984;-65
2022/07/16 09:56:12;;;;;;;4.70;4.40;;;;;;;22.60;69.21;101025.44;4953756;28;102092;-64
2022/07/16 09:58:39;;;;;;;4.38;4.07;;;;;;;22.59;68.86;101030.19;4960728;28;102161;-65
2022/07/16 10:01:06;;;;;;;4.18;3.78;;;;;;;22.57;68.80;101017.81;4958169;28;103906;-65
2022/07/16 10:03:35;;;;;;;4.15;3.83;;;;;;;22.54;69.02;101025.69;4955747;28;101944;-64
2022/07/16 10:06:01;;;;;;;3.85;3.55;;;;;;;22.55;69.05;101021.75;4954946;28;102068;-65
2022/07/16 10:08:28;;;;;;;4.13;3.83;;;;;;;22.58;68.84;101016.69;4944027;28;101993;-65
2022/07/16 10:10:55;;;;;;;5.15;4.72;;;;;;;22.59;68.86;101004.41;4957645;28;103926;-65
2022/07/16 10:13:26;;;;;;;4.50;4.10;;;;;;;22.58;68.71;101000.03;4958890;28;102056;-66
2022/07/16 10:15:53;;;;;;;4.93;4.47;;;;;;;22.60;68.95;101008.81;4948535;28;102105;-65
2022/07/16 10:18:36;;;;;;;4.75;4.35;;;;;;;22.59;68.62;101005.22;4958869;28;102295;-66
2022/07/16 10:21:06;;;;;;;4.50;4.20;;;;;;;22.60;68.53;101009.59;4950401;28;103878;-65
2022/07/16 10:23:33;;;;;;;4.80;4.30;;;;;;;22.61;68.37;101008.47;4954849;28;102285;-65
2022/07/16 10:26:05;;;;;;;4.57;4.18;;;;;;;22.60;68.65;101004.06;4954125;28;102370;-65
2022/07/16 10:28:40;;;;;;;3.90;3.70;;;;;;;22.59;69.00;101007.19;4961202;28;102012;-65
2022/07/16 10:34:34;;;;;;;5.65;3.90;;;;;;;22.65;67.99;101003.03;4944855;28;102050;-65
2022/07/16 10:37:02;;;;;;;3.90;3.60;;;;;;;22.65;68.30;101003.84;4957691;28;102328;-65
2022/07/16 10:39:28;;;;;;;4.93;4.57;;;;;;;22.61;68.74;101000.16;4959736;28;102314;-65
2022/07/16 10:41:58;;;;;;;4.53;4.22;;;;;;;22.59;68.76;101008.00;4958131;28;103942;-65
2022/07/16 10:44:26;;;;;;;4.97;4.25;;;;;;;22.58;68.86;101011.13;4958880;28;102611;-65
2022/07/16 10:46:54;;;;;;;4.82;4.43;;;;;;;22.58;68.80;100997.25;4957523;28;102155;-66
2022/07/16 10:49:22;;;;;;;4.75;4.45;;;;;;;22.59;68.78;101005.22;4947149;28;102185;-64
2022/07/16 10:51:58;;;;;;;4.37;4.07;;;;;;;22.61;68.81;101010.41;4957980;28;103939;-66
2022/07/16 10:54:26;;;;;;;4.50;4.00;;;;;;;22.64;68.42;101004.19;4958612;28;101962;-64
2022/07/16 10:56:54;;;;;;;4.35;4.05;;;;;;;22.62;68.70;101001.75;4955602;28;102403;-65
2022/07/16 10:59:23;;;;;;;4.88;4.38;;;;;;;22.60;68.92;100998.50;4960271;28;102124;-65
2022/07/16 11:01:51;;;;;;;4.72;4.32;;;;;;;22.58;69.06;100995.28;4957066;28;103959;-65
2022/07/16 11:04:29;;;;;;;4.28;3.97;;;;;;;22.57;68.84;101001.97;4959730;28;102123;-65
2022/07/16 11:07:01;;;;;;;4.18;3.88;;;;;;;22.54;69.27;101003.50;4958848;28;102010;-66
2022/07/16 11:09:31;;;;;;;4.20;3.80;;;;;;;22.54;69.10;100997.13;4959546;28;102285;-65
2022/07/16 11:12:08;;;;;;;4.30;3.90;;;;;;;22.53;69.19;100995.50;4956397;28;103988;-65
2022/07/16 11:14:36;;;;;;;4.20;3.90;;;;;;;22.52;69.20;100996.66;4949164;28;102746;-65
2022/07/16 11:17:03;;;;;;;4.13;3.83;;;;;;;22.54;69.10;100995.16;4957089;28;101984;-65
2022/07/16 11:19:35;;;;;;;4.18;3.88;;;;;;;22.52;69.23;100991.13;4958497;28;102024;-65
2022/07/16 11:22:04;;;;;;;4.03;3.72;;;;;;;22.52;69.14;101002.22;4957774;28;103916;-65
2022/07/16 11:24:31;;;;;;;;;;;;;;;22.53;68.95;100995.50;4957675;28;102196;-66
2022/07/16 11:26:58;;;;;;;4.20;3.90;;;;;;;22.51;69.05;100995.06;4954018;28;102368;-65
2022/07/16 11:29:27;;;;;;;5.22;3.90;;;;;;;22.51;69.27;101003.38;4957983;28;103378;-63
2022/07/16 11:31:55;;;;;;;4.30;4.00;;;;;;;22.51;68.97;101001.41;4957554;28;103965;-64
2022/07/16 11:34:22;;;;;;;4.20;3.90;;;;;;;22.48;69.20;100995.75;4956973;28;101898;-64